Time;durP1;ratioP1;P1;durP2;ratioP2;P2;SDS_P1;SDS_P2;PMS_P1;PMS_P2;Temp;Humidity;BMP_temperature;BMP_pressure;BME280_temperature;BME280_humidity;BME280_pressure;Samples;Min_cycle;Max_cycle;Signal;HPM_P1;HPM_P2
2022/05/22 00:02:00;;;;;;;16.52;7.72;;;;;;;;;;7395226;19;20014;-59
2022/05/22 00:04:28;;;;;;;15.05;7.78;;;;;;;;;;7393437;19;20010;-59
2022/05/22 00:06:57;;;;;;;12.98;7.07;;;;;;;;;;7390309;19;20015;-59
2022/05/22 00:09:28;;;;;;;12.88;7.57;;;;;;;;;;7392693;19;20018;-53
2022/05/22 00:11:59;;;;;;;11.65;7.38;;;;;;;;;;7390164;19;20033;-58
2022/05/22 00:14:28;;;;;;;16.17;7.68;;;;;;;;;;7393966;19;20015;-61
2022/05/22 00:16:59;;;;;;;13.57;8.07;;;;;;;;;;7393091;19;20160;-61
2022/05/22 00:19:28;;;;;;;16.13;8.68;;;;;;;;;;7388718;19;20038;-60
2022/05/22 00:21:56;;;;;;;12.10;7.72;;;;;;;;;;7397206;19;20003;-59
2022/05/22 00:24:26;;;;;;;11.70;7.75;;;;;;;;;;7394866;19;20332;-62
2022/05/22 00:26:55;;;;;;;16.40;8.27;;;;;;;;;;7389503;19;20524;-53
2022/05/22 00:29:27;;;;;;;13.63;7.32;;;;;;;;;;7390690;19;20030;-60
2022/05/22 00:32:00;;;;;;;16.15;7.63;;;;;;;;;;7390004;19;20033;-61
2022/05/22 00:34:30;;;;;;;10.43;7.03;;;;;;;;;;7392077;19;20047;-58
2022/05/22 00:36:58;;;;;;;13.63;7.38;;;;;;;;;;7392315;19;20183;-59
2022/05/22 00:39:26;;;;;;;11.25;7.20;;;;;;;;;;7392020;19;20319;-58
2022/05/22 00:41:56;;;;;;;12.90;7.10;;;;;;;;;;7389676;19;20017;-58
2022/05/22 00:44:27;;;;;;;13.98;7.88;;;;;;;;;;7390369;19;20022;-59
2022/05/22 00:46:56;;;;;;;12.20;6.97;;;;;;;;;;7386660;19;20025;-59
2022/05/22 00:49:27;;;;;;;12.93;7.20;;;;;;;;;;7389981;19;20948;-59
2022/05/22 00:51:58;;;;;;;15.45;7.40;;;;;;;;;;7389053;19;20014;-58
2022/05/22 00:54:29;;;;;;;13.48;6.78;;;;;;;;;;7390186;19;20332;-59
2022/05/22 00:57:00;;;;;;;13.90;7.45;;;;;;;;;;7389551;19;20015;-59
2022/05/22 00:59:34;;;;;;;13.32;6.93;;;;;;;;;;7390767;19;20014;-59
2022/05/22 01:02:03;;;;;;;12.85;6.10;;;;;;;;;;7393294;19;20368;-58
2022/05/22 01:04:35;;;;;;;13.30;6.50;;;;;;;;;;7390181;19;20353;-58
2022/05/22 01:07:04;;;;;;;13.50;6.47;;;;;;;;;;7386965;19;20014;-59
2022/05/22 01:09:32;;;;;;;15.13;6.47;;;;;;;;;;7391198;19;20078;-59
2022/05/22 01:12:05;;;;;;;12.00;6.57;;;;;;;;;;7391425;19;20022;-59
2022/05/22 01:14:37;;;;;;;12.35;6.60;;;;;;;;;;7393018;19;20056;-59
2022/05/22 01:17:07;;;;;;;15.60;6.28;;;;;;;;;;7385610;19;20022;-59
2022/05/22 01:19:37;;;;;;;12.90;6.85;;;;;;;;;;7389102;19;20046;-59
2022/05/22 01:22:10;;;;;;;13.18;7.20;;;;;;;;;;7387341;19;20493;-54
2022/05/22 01:24:41;;;;;;;17.80;6.88;;;;;;;;;;7390916;19;20023;-54
2022/05/22 01:27:16;;;;;;;14.40;6.75;;;;;;;;;;7386070;19;20510;-60
2022/05/22 01:29:53;;;;;;;18.52;7.38;;;;;;;;;;7387833;19;20010;-54
2022/05/22 01:32:22;;;;;;;12.48;6.72;;;;;;;;;;7396146;19;20486;-58
2022/05/22 01:34:51;;;;;;;13.27;6.75;;;;;;;;;;7394502;19;20014;-59
2022/05/22 01:37:23;;;;;;;12.45;6.50;;;;;;;;;;7392444;19;20475;-57
2022/05/22 01:39:52;;;;;;;15.20;7.55;;;;;;;;;;7396888;19;20027;-58
2022/05/22 01:42:20;;;;;;;13.75;7.28;;;;;;;;;;7394936;19;20031;-58
2022/05/22 01:44:49;;;;;;;13.45;7.20;;;;;;;;;;7398320;19;20019;-58
2022/05/22 01:47:18;;;;;;;14.27;7.40;;;;;;;;;;7392183;19;20014;-58
2022/05/22 01:49:46;;;;;;;12.88;7.03;;;;;;;;;;7397705;19;20014;-57
2022/05/22 01:52:15;;;;;;;12.93;7.53;;;;;;;;;;7397663;19;20026;-59
2022/05/22 01:54:47;;;;;;;14.50;7.75;;;;;;;;;;7396527;19;20483;-58
2022/05/22 01:57:15;;;;;;;13.65;7.93;;;;;;;;;;7391820;19;20014;-59
2022/05/22 01:59:44;;;;;;;16.65;7.82;;;;;;;;;;7397036;19;20127;-58
2022/05/22 02:02:20;;;;;;;13.43;6.85;;;;;;;;;;7394855;19;20030;-59
2022/05/22 02:04:49;;;;;;;15.52;7.43;;;;;;;;;;7398031;19;20022;-58
2022/05/22 02:10:04;;;;;;;14.35;7.60;;;;;;;;;;7396448;19;20022;-56
2022/05/22 02:12:33;;;;;;;19.00;7.85;;;;;;;;;;7395854;19;20081;-63
2022/05/22 02:15:05;;;;;;;14.02;7.82;;;;;;;;;;7397218;19;20471;-58
2022/05/22 02:17:34;;;;;;;12.60;7.90;;;;;;;;;;7397309;19;20500;-58
2022/05/22 02:20:03;;;;;;;14.82;7.97;;;;;;;;;;7397584;19;20018;-59
2022/05/22 02:22:41;;;;;;;16.05;7.90;;;;;;;;;;7399444;19;20516;-56
2022/05/22 02:25:15;;;;;;;18.63;8.85;;;;;;;;;;7399172;19;20022;-59
2022/05/22 02:27:44;;;;;;;19.38;8.60;;;;;;;;;;7397081;19;20041;-60
2022/05/22 02:30:15;;;;;;;15.70;8.50;;;;;;;;;;7394755;19;20023;-59
2022/05/22 02:32:43;;;;;;;18.33;8.80;;;;;;;;;;7394077;19;20051;-58
2022/05/22 02:35:14;;;;;;;18.13;8.77;;;;;;;;;;7396544;19;20086;-59
2022/05/22 02:37:43;;;;;;;16.73;8.98;;;;;;;;;;7398727;19;20021;-59
2022/05/22 02:40:27;;;;;;;17.25;8.63;;;;;;;;;;7396518;19;20010;-60
2022/05/22 02:42:57;;;;;;;14.88;8.43;;;;;;;;;;7392844;19;20022;-60
2022/05/22 02:45:32;;;;;;;16.13;9.10;;;;;;;;;;7395772;19;20034;-58
2022/05/22 02:48:08;;;;;;;19.90;9.98;;;;;;;;;;7399207;19;20017;-60
2022/05/22 02:50:37;;;;;;;14.55;9.50;;;;;;;;;;7396292;19;20022;-60
2022/05/22 02:53:12;;;;;;;13.38;9.15;;;;;;;;;;7398184;19;20048;-60
2022/05/22 02:56:08;;;;;;;14.70;8.95;;;;;;;;;;7397842;19;20025;-60
2022/05/22 02:58:47;;;;;;;13.18;8.85;;;;;;;;;;7395038;19;20015;-60
2022/05/22 03:01:15;;;;;;;15.50;8.98;;;;;;;;;;7394550;19;20464;-58
2022/05/22 03:03:44;;;;;;;17.48;9.10;;;;;;;;;;7395050;19;20057;-60
2022/05/22 03:08:55;;;;;;;14.20;8.55;;;;;;;;;;7396522;19;20031;-60
2022/05/22 03:11:26;;;;;;;16.92;8.77;;;;;;;;;;7393019;19;20372;-61
2022/05/22 03:13:54;;;;;;;13.80;8.80;;;;;;;;;;7392040;19;20401;-60
2022/05/22 03:16:23;;;;;;;14.80;8.57;;;;;;;;;;7391123;19;20018;-58
2022/05/22 03:19:13;;;;;;;18.25;9.45;;;;;;;;;;7395324;19;20020;-60
2022/05/22 03:21:42;;;;;;;15.23;8.70;;;;;;;;;;7393743;19;20698;-59
2022/05/22 03:24:11;;;;;;;13.82;9.10;;;;;;;;;;7395832;19;20489;-60
2022/05/22 03:26:47;;;;;;;18.67;9.18;;;;;;;;;;7394405;19;20018;-60
2022/05/22 03:29:16;;;;;;;18.23;9.13;;;;;;;;;;7391552;19;20483;-59
2022/05/22 03:31:46;;;;;;;17.95;9.75;;;;;;;;;;7393052;19;20048;-56
2022/05/22 03:34:15;;;;;;;18.10;9.27;;;;;;;;;;7391491;19;20464;-59
2022/05/22 03:36:49;;;;;;;15.95;9.10;;;;;;;;;;7394833;19;20047;-59
2022/05/22 03:39:18;;;;;;;18.35;11.65;;;;;;;;;;7394222;19;20468;-60
2022/05/22 03:41:50;;;;;;;16.50;9.32;;;;;;;;;;7394773;19;20037;-60
2022/05/22 03:44:21;;;;;;;15.07;8.52;;;;;;;;;;7392031;19;20071;-60
2022/05/22 03:46:51;;;;;;;15.25;9.27;;;;;;;;;;7395416;19;20018;-60
2022/05/22 03:49:25;;;;;;;13.90;8.57;;;;;;;;;;7390752;19;20014;-60
2022/05/22 03:51:56;;;;;;;13.57;7.82;;;;;;;;;;7396502;19;20367;-60
2022/05/22 03:54:25;;;;;;;14.32;7.75;;;;;;;;;;7393733;19;20018;-60
2022/05/22 03:57:00;;;;;;;13.18;7.68;;;;;;;;;;7390013;19;20025;-58
2022/05/22 03:59:33;;;;;;;15.52;8.32;;;;;;;;;;7392741;19;20516;-58
2022/05/22 04:02:02;;;;;;;16.83;8.60;;;;;;;;;;7392884;19;20467;-60
2022/05/22 04:04:31;;;;;;;17.50;8.40;;;;;;;;;;7392217;19;20819;-59
2022/05/22 04:07:03;;;;;;;19.15;8.65;;;;;;;;;;7389595;19;20020;-60
2022/05/22 04:09:32;;;;;;;15.18;8.48;;;;;;;;;;7392072;19;20386;-60
2022/05/22 04:12:29;;;;;;;14.95;7.95;;;;;;;;;;7391885;19;20463;-59
2022/05/22 04:14:58;;;;;;;16.00;8.45;;;;;;;;;;7392858;19;20021;-60
2022/05/22 04:17:26;;;;;;;14.52;7.40;;;;;;;;;;7392568;19;20037;-59
2022/05/22 04:19:58;;;;;;;15.10;7.55;;;;;;;;;;7391929;19;20033;-60
2022/05/22 04:22:27;;;;;;;15.38;8.02;;;;;;;;;;7388865;19;20384;-58
2022/05/22 04:27:41;;;;;;;16.05;8.48;;;;;;;;;;7393943;19;20029;-59
2022/05/22 04:30:17;;;;;;;14.40;9.02;;;;;;;;;;7393251;19;20052;-60
2022/05/22 04:32:48;;;;;;;18.08;8.88;;;;;;;;;;7390503;19;20022;-60
2022/05/22 04:35:17;;;;;;;13.50;8.98;;;;;;;;;;7391548;19;20022;-60
2022/05/22 04:37:47;;;;;;;14.25;8.27;;;;;;;;;;7389672;19;20522;-59
2022/05/22 04:40:16;;;;;;;12.50;8.07;;;;;;;;;;7390450;19;20033;-60
2022/05/22 04:42:47;;;;;;;13.43;8.18;;;;;;;;;;7389811;19;20141;-59
2022/05/22 04:45:16;;;;;;;17.15;8.63;;;;;;;;;;7393715;19;20010;-60
2022/05/22 04:47:54;;;;;;;15.15;9.27;;;;;;;;;;7389986;19;20021;-59
2022/05/22 04:50:48;;;;;;;15.77;8.98;;;;;;;;;;7393159;19;20048;-60
2022/05/22 04:53:30;;;;;;;18.08;9.02;;;;;;;;;;7391015;19;20021;-60
2022/05/22 04:56:21;;;;;;;13.70;8.75;;;;;;;;;;7389554;19;20014;-60
2022/05/22 04:59:01;;;;;;;18.20;8.60;;;;;;;;;;7390498;19;20403;-58
2022/05/22 05:01:31;;;;;;;14.05;8.30;;;;;;;;;;7389661;19;20014;-59
2022/05/22 05:04:13;;;;;;;15.70;9.10;;;;;;;;;;7389802;19;20041;-59
2022/05/22 05:07:09;;;;;;;13.55;8.55;;;;;;;;;;7385428;19;20102;-55
2022/05/22 05:10:00;;;;;;;15.63;8.68;;;;;;;;;;7390056;19;20428;-59
2022/05/22 05:12:44;;;;;;;18.35;8.80;;;;;;;;;;7391329;19;20015;-60
2022/05/22 05:15:19;;;;;;;15.05;8.35;;;;;;;;;;7391927;19;20030;-55
2022/05/22 05:17:55;;;;;;;16.25;8.63;;;;;;;;;;7389276;19;20029;-59
2022/05/22 05:20:26;;;;;;;11.65;8.10;;;;;;;;;;7391575;19;20348;-56
2022/05/22 05:23:03;;;;;;;19.30;9.70;;;;;;;;;;7391057;19;20078;-58
2022/05/22 05:25:41;;;;;;;17.45;9.20;;;;;;;;;;7391175;19;20022;-60
2022/05/22 05:28:09;;;;;;;19.95;9.45;;;;;;;;;;7392904;19;20014;-59
2022/05/22 05:30:41;;;;;;;15.30;8.90;;;;;;;;;;7389112;19;20456;-59
2022/05/22 05:33:10;;;;;;;14.80;8.50;;;;;;;;;;7388394;19;20029;-60
2022/05/22 05:35:57;;;;;;;14.20;9.10;;;;;;;;;;7392759;19;20040;-60
2022/05/22 05:38:40;;;;;;;12.88;8.52;;;;;;;;;;7387517;19;20014;-60
2022/05/22 05:41:10;;;;;;;16.38;9.57;;;;;;;;;;7388262;19;20563;-57
2022/05/22 05:43:39;;;;;;;19.02;9.63;;;;;;;;;;7389385;19;20029;-59
2022/05/22 05:46:12;;;;;;;16.15;9.25;;;;;;;;;;7389009;19;20342;-60
2022/05/22 05:48:41;;;;;;;17.40;9.55;;;;;;;;;;7387995;19;20010;-60
2022/05/22 05:51:09;;;;;;;15.75;8.68;;;;;;;;;;7387310;19;20030;-58
2022/05/22 05:53:40;;;;;;;14.20;8.25;;;;;;;;;;7387878;19;20138;-60
2022/05/22 05:56:29;;;;;;;13.50;8.25;;;;;;;;;;7388102;19;20018;-60
2022/05/22 05:59:14;;;;;;;18.80;8.77;;;;;;;;;;7389582;19;20026;-60
2022/05/22 06:02:02;;;;;;;14.65;8.10;;;;;;;;;;7390866;19;20376;-61
2022/05/22 06:04:31;;;;;;;14.38;8.25;;;;;;;;;;7391175;19;20018;-55
2022/05/22 06:06:59;;;;;;;10.75;7.20;;;;;;;;;;7386214;19;20007;-60
2022/05/22 06:09:28;;;;;;;13.57;6.88;;;;;;;;;;7388447;19;20022;-60
2022/05/22 06:12:16;;;;;;;13.70;6.80;;;;;;;;;;7388561;19;20360;-56
2022/05/22 06:14:55;;;;;;;11.70;7.22;;;;;;;;;;7391048;19;20363;-61
2022/05/22 06:17:32;;;;;;;11.93;6.00;;;;;;;;;;7387183;19;20026;-59
2022/05/22 06:20:03;;;;;;;13.63;6.05;;;;;;;;;;7395950;19;20019;-60
2022/05/22 06:22:36;;;;;;;10.20;5.70;;;;;;;;;;7393602;19;20030;-60
2022/05/22 06:25:08;;;;;;;14.75;5.53;;;;;;;;;;7397001;19;20022;-58
2022/05/22 06:27:51;;;;;;;16.65;5.85;;;;;;;;;;7397956;19;20022;-57
2022/05/22 06:30:42;;;;;;;9.77;5.35;;;;;;;;;;7396014;19;20021;-59
2022/05/22 06:33:34;;;;;;;8.85;4.65;;;;;;;;;;7394049;19;20019;-60
2022/05/22 06:36:22;;;;;;;11.73;5.32;;;;;;;;;;7399387;19;20022;-59
2022/05/22 06:42:13;;;;;;;10.48;5.40;;;;;;;;;;7394862;19;20081;-60
2022/05/22 06:44:59;;;;;;;9.82;5.03;;;;;;;;;;7397147;19;20029;-60
2022/05/22 06:47:51;;;;;;;;;;;;;;;;;;7396427;19;20010;-59
2022/05/22 06:50:50;;;;;;;12.90;5.15;;;;;;;;;;7395804;19;19957;-60
2022/05/22 06:53:42;;;;;;;12.63;5.43;;;;;;;;;;7393384;19;20025;-60
2022/05/22 06:56:29;;;;;;;8.45;4.50;;;;;;;;;;7398328;19;20040;-60
2022/05/22 06:58:58;;;;;;;15.10;5.85;;;;;;;;;;7399262;19;20018;-57
2022/05/22 07:01:52;;;;;;;9.10;4.60;;;;;;;;;;7397132;19;20046;-58
2022/05/22 07:04:59;;;;;;;11.65;5.90;;;;;;;;;;7392792;19;20455;-59
2022/05/22 07:07:48;;;;;;;10.43;5.60;;;;;;;;;;7395152;19;20024;-59
2022/05/22 07:13:42;;;;;;;10.68;5.47;;;;;;;;;;7396382;19;20015;-60
2022/05/22 07:16:25;;;;;;;14.05;5.18;;;;;;;;;;7396751;19;20014;-60
2022/05/22 07:19:08;;;;;;;9.50;5.50;;;;;;;;;;7393887;19;20006;-60
2022/05/22 07:21:55;;;;;;;10.18;5.70;;;;;;;;;;7395417;19;20102;-60
2022/05/22 07:24:45;;;;;;;10.15;5.65;;;;;;;;;;7399288;19;20054;-60
2022/05/22 07:27:22;;;;;;;12.40;6.40;;;;;;;;;;7393724;19;20456;-60
2022/05/22 07:30:09;;;;;;;14.65;8.32;;;;;;;;;;7398366;19;20018;-59
2022/05/22 07:32:52;;;;;;;10.40;5.38;;;;;;;;;;7394840;19;20015;-57
2022/05/22 07:35:39;;;;;;;8.57;4.65;;;;;;;;;;7398235;19;20026;-59
2022/05/22 07:38:27;;;;;;;9.27;3.85;;;;;;;;;;7395440;19;20089;-60
2022/05/22 07:41:12;;;;;;;8.05;4.20;;;;;;;;;;7393814;19;20078;-57
2022/05/22 07:44:06;;;;;;;9.80;4.55;;;;;;;;;;7394586;19;20483;-60
2022/05/22 07:46:48;;;;;;;13.88;5.68;;;;;;;;;;7393653;19;20026;-59
2022/05/22 07:52:51;;;;;;;9.77;6.22;;;;;;;;;;7390730;19;20052;-60
2022/05/22 07:55:32;;;;;;;13.43;6.45;;;;;;;;;;7395217;19;20324;-60
2022/05/22 07:58:23;;;;;;;11.18;5.70;;;;;;;;;;7393376;19;20045;-60
2022/05/22 08:01:13;;;;;;;11.10;6.10;;;;;;;;;;7392306;19;20127;-60
2022/05/22 08:04:00;;;;;;;11.63;5.30;;;;;;;;;;7391666;19;20022;-56
2022/05/22 08:07:06;;;;;;;10.50;4.82;;;;;;;;;;7390187;19;20412;-61
2022/05/22 08:09:51;;;;;;;8.73;4.05;;;;;;;;;;7390424;19;20372;-60
2022/05/22 08:12:19;;;;;;;7.28;4.10;;;;;;;;;;7390315;19;20025;-61
2022/05/22 08:14:51;;;;;;;8.70;3.88;;;;;;;;;;7393137;19;20026;-59
2022/05/22 08:17:21;;;;;;;6.90;3.42;;;;;;;;;;7391376;19;20347;-57
2022/05/22 08:19:51;;;;;;;7.90;3.58;;;;;;;;;;7391881;19;20030;-61
2022/05/22 08:22:26;;;;;;;9.02;4.10;;;;;;;;;;7390230;19;20021;-60
2022/05/22 08:25:14;;;;;;;6.93;3.47;;;;;;;;;;7391869;19;20018;-60
2022/05/22 08:27:44;;;;;;;9.68;4.03;;;;;;;;;;7391379;19;20340;-59
2022/05/22 08:30:16;;;;;;;7.78;2.92;;;;;;;;;;7389610;19;20021;-59
2022/05/22 08:32:48;;;;;;;9.30;3.25;;;;;;;;;;7391335;19;20081;-60
2022/05/22 08:35:18;;;;;;;8.02;2.95;;;;;;;;;;7391783;19;20074;-61
2022/05/22 08:37:46;;;;;;;7.30;2.90;;;;;;;;;;7392631;19;20081;-57
2022/05/22 08:40:16;;;;;;;8.90;3.95;;;;;;;;;;7389238;19;20015;-58
2022/05/22 08:42:46;;;;;;;8.27;4.05;;;;;;;;;;7390741;19;20021;-57
2022/05/22 08:45:20;;;;;;;7.18;4.03;;;;;;;;;;7391155;19;20346;-59
2022/05/22 08:47:55;;;;;;;10.85;4.20;;;;;;;;;;7394189;19;20402;-57
2022/05/22 08:50:25;;;;;;;8.35;3.10;;;;;;;;;;7390941;19;20015;-55
2022/05/22 08:52:56;;;;;;;7.28;2.97;;;;;;;;;;7392224;19;20026;-61
2022/05/22 08:58:55;;;;;;;7.68;3.35;;;;;;;;;;7389580;19;20458;-60
2022/05/22 09:01:04;;;;;;;8.60;3.38;;;;;;;;;;7391475;19;20379;-59
2022/05/22 09:03:35;;;;;;;9.20;3.20;;;;;;;;;;7389959;19;20015;-59
2022/05/22 09:06:05;;;;;;;7.32;3.05;;;;;;;;;;7389941;19;20359;-55
2022/05/22 09:08:39;;;;;;;9.57;3.90;;;;;;;;;;7390836;19;20011;-58
2022/05/22 09:11:10;;;;;;;8.57;3.20;;;;;;;;;;7391334;19;20372;-57
2022/05/22 09:13:42;;;;;;;8.00;3.33;;;;;;;;;;7393142;19;20011;-57
2022/05/22 09:16:15;;;;;;;8.60;3.08;;;;;;;;;;7391456;19;20044;-55
2022/05/22 09:18:48;;;;;;;7.13;2.83;;;;;;;;;;7392833;19;20016;-60
2022/05/22 09:21:23;;;;;;;8.52;3.42;;;;;;;;;;7391340;19;20029;-60
2022/05/22 09:24:01;;;;;;;6.35;3.17;;;;;;;;;;7389819;19;20495;-60
2022/05/22 09:26:43;;;;;;;9.23;3.40;;;;;;;;;;7391908;19;20039;-55
2022/05/22 09:29:19;;;;;;;6.45;2.42;;;;;;;;;;7392154;19;20006;-57
2022/05/22 09:31:54;;;;;;;7.72;3.20;;;;;;;;;;7395371;19;20025;-59
2022/05/22 09:34:26;;;;;;;8.23;3.15;;;;;;;;;;7396720;19;20011;-59
2022/05/22 09:37:01;;;;;;;9.98;3.60;;;;;;;;;;7390270;19;20019;-59
2022/05/22 09:39:37;;;;;;;7.95;3.47;;;;;;;;;;7389973;19;20022;-59
2022/05/22 09:42:10;;;;;;;7.80;3.20;;;;;;;;;;7390823;19;20014;-60
2022/05/22 09:44:58;;;;;;;6.15;2.55;;;;;;;;;;7388004;19;20018;-60
2022/05/22 09:47:35;;;;;;;7.10;2.60;;;;;;;;;;7387946;19;20019;-52
2022/05/22 09:50:14;;;;;;;7.47;3.05;;;;;;;;;;7391039;19;20011;-57
2022/05/22 09:52:48;;;;;;;4.40;2.25;;;;;;;;;;7395876;19;20018;-54
2022/05/22 09:55:23;;;;;;;7.30;2.75;;;;;;;;;;7397165;19;20033;-56
2022/05/22 09:58:07;;;;;;;7.32;2.35;;;;;;;;;;7397207;19;20014;-53
2022/05/22 10:00:41;;;;;;;7.95;2.50;;;;;;;;;;7396150;19;20014;-55
2022/05/22 10:03:15;;;;;;;6.90;2.55;;;;;;;;;;7395968;19;20360;-55
2022/05/22 10:05:50;;;;;;;4.97;2.60;;;;;;;;;;7396862;19;20035;-54
2022/05/22 10:08:25;;;;;;;7.80;2.80;;;;;;;;;;7397722;19;20014;-56
2022/05/22 10:10:57;;;;;;;8.18;2.78;;;;;;;;;;7397234;19;20015;-59
2022/05/22 10:13:32;;;;;;;9.82;3.15;;;;;;;;;;7400996;19;20018;-56
2022/05/22 10:16:08;;;;;;;5.80;3.03;;;;;;;;;;7394476;19;20018;-51
2022/05/22 10:18:50;;;;;;;6.07;2.90;;;;;;;;;;7396286;19;20027;-54
2022/05/22 10:21:21;;;;;;;9.05;3.00;;;;;;;;;;7396014;19;20010;-59
2022/05/22 10:23:57;;;;;;;6.93;3.45;;;;;;;;;;7393647;19;20018;-54
2022/05/22 10:26:31;;;;;;;7.47;2.97;;;;;;;;;;7394820;19;20042;-57
2022/05/22 10:29:03;;;;;;;7.72;3.10;;;;;;;;;;7396088;19;20359;-61
2022/05/22 10:31:36;;;;;;;11.40;3.20;;;;;;;;;;7396217;19;20018;-53
2022/05/22 10:34:11;;;;;;;6.43;2.90;;;;;;;;;;7394555;19;20624;-53
2022/05/22 10:36:41;;;;;;;7.68;2.90;;;;;;;;;;7393927;19;20022;-60
2022/05/22 10:39:11;;;;;;;8.27;3.00;;;;;;;;;;7398545;19;20028;-59
2022/05/22 10:44:30;;;;;;;6.85;2.60;;;;;;;;;;7393038;19;20345;-58
2022/05/22 10:47:02;;;;;;;4.57;2.50;;;;;;;;;;7393733;19;20029;-59
2022/05/22 10:49:40;;;;;;;7.32;2.65;;;;;;;;;;7395191;19;20015;-57
2022/05/22 10:52:09;;;;;;;7.18;2.70;;;;;;;;;;7395144;19;20018;-57
2022/05/22 10:54:44;;;;;;;5.22;2.50;;;;;;;;;;7396237;19;20014;-59
2022/05/22 10:57:14;;;;;;;6.47;2.40;;;;;;;;;;7391626;19;20027;-57
2022/05/22 10:59:43;;;;;;;8.98;3.60;;;;;;;;;;7396267;19;20089;-58
2022/05/22 11:02:17;;;;;;;8.52;2.95;;;;;;;;;;7395277;19;20066;-56
2022/05/22 11:04:49;;;;;;;6.93;2.35;;;;;;;;;;7390394;19;20023;-58
2022/05/22 11:07:29;;;;;;;6.72;2.40;;;;;;;;;;7392779;19;20090;-56
2022/05/22 11:09:58;;;;;;;5.95;2.60;;;;;;;;;;7393809;19;20025;-56
2022/05/22 11:12:28;;;;;;;8.45;2.50;;;;;;;;;;7394724;19;20409;-59
2022/05/22 11:15:05;;;;;;;7.93;2.53;;;;;;;;;;7394055;19;20020;-59
2022/05/22 11:17:34;;;;;;;6.88;2.95;;;;;;;;;;7394499;19;20015;-56
2022/05/22 11:20:09;;;;;;;6.75;2.60;;;;;;;;;;7394382;19;20086;-57
2022/05/22 11:22:40;;;;;;;6.50;2.88;;;;;;;;;;7395028;19;20078;-56
2022/05/22 11:25:14;;;;;;;8.18;2.80;;;;;;;;;;7391936;19;20010;-55
2022/05/22 11:27:48;;;;;;;6.32;3.00;;;;;;;;;;7392694;19;20375;-59
2022/05/22 11:30:24;;;;;;;5.57;2.45;;;;;;;;;;7392155;19;20351;-59
2022/05/22 11:33:12;;;;;;;6.20;2.90;;;;;;;;;;7394095;19;20011;-58
2022/05/22 11:35:45;;;;;;;7.00;3.03;;;;;;;;;;7393214;19;20113;-59
2022/05/22 11:38:32;;;;;;;7.53;3.08;;;;;;;;;;7394260;19;20320;-57
2022/05/22 11:41:04;;;;;;;8.75;4.03;;;;;;;;;;7392098;19;20025;-58
2022/05/22 11:43:45;;;;;;;9.13;4.43;;;;;;;;;;7394072;19;20353;-58
2022/05/22 11:46:15;;;;;;;9.57;4.60;;;;;;;;;;7395540;19;20459;-52
2022/05/22 11:48:49;;;;;;;8.73;3.80;;;;;;;;;;7396916;19;20014;-59
2022/05/22 11:51:33;;;;;;;11.50;4.30;;;;;;;;;;7393055;19;20018;-59
2022/05/22 11:54:18;;;;;;;8.95;3.50;;;;;;;;;;7393006;19;20094;-52
2022/05/22 11:56:56;;;;;;;7.10;3.78;;;;;;;;;;7390946;19;20017;-57
2022/05/22 11:59:33;;;;;;;7.22;3.72;;;;;;;;;;7392452;19;20047;-56
2022/05/22 12:02:07;;;;;;;7.97;4.18;;;;;;;;;;7392882;19;20014;-59
2022/05/22 12:04:51;;;;;;;23.05;5.72;;;;;;;;;;7390829;19;20036;-57
2022/05/22 12:07:41;;;;;;;9.85;3.85;;;;;;;;;;7391963;19;20025;-59
2022/05/22 12:10:11;;;;;;;6.95;3.65;;;;;;;;;;7392379;19;20022;-59
2022/05/22 12:12:44;;;;;;;8.00;3.88;;;;;;;;;;7392529;19;20033;-59
2022/05/22 12:15:22;;;;;;;5.70;3.30;;;;;;;;;;7392313;19;20029;-59
2022/05/22 12:17:55;;;;;;;8.68;4.68;;;;;;;;;;7392485;19;20082;-57
2022/05/22 12:20:25;;;;;;;7.80;5.00;;;;;;;;;;7390387;19;20022;-59
2022/05/22 12:23:11;;;;;;;8.30;4.35;;;;;;;;;;7393211;19;20015;-59
2022/05/22 12:25:48;;;;;;;6.85;4.07;;;;;;;;;;7392809;19;20018;-57
2022/05/22 12:28:31;;;;;;;8.88;4.25;;;;;;;;;;7393797;19;20014;-60
2022/05/22 12:31:01;;;;;;;7.47;4.72;;;;;;;;;;7392386;19;20007;-57
2022/05/22 12:33:30;;;;;;;9.55;5.03;;;;;;;;;;7396584;19;20014;-59
2022/05/22 12:36:00;;;;;;;10.18;4.95;;;;;;;;;;7392139;19;20024;-59
2022/05/22 12:38:31;;;;;;;8.63;3.83;;;;;;;;;;7392178;19;20017;-59
2022/05/22 12:41:03;;;;;;;7.93;4.53;;;;;;;;;;7391328;19;20486;-55
2022/05/22 12:43:32;;;;;;;11.53;4.80;;;;;;;;;;7392003;19;20021;-56
2022/05/22 12:46:03;;;;;;;7.93;5.40;;;;;;;;;;7391301;19;20019;-53
2022/05/22 12:48:38;;;;;;;7.82;3.88;;;;;;;;;;7391590;19;20014;-58
2022/05/22 12:51:17;;;;;;;9.05;3.55;;;;;;;;;;7391343;19;20022;-62
2022/05/22 12:53:49;;;;;;;6.95;2.65;;;;;;;;;;7392133;19;20010;-60
2022/05/22 12:56:24;;;;;;;8.35;3.60;;;;;;;;;;7394668;19;20014;-57
2022/05/22 12:58:57;;;;;;;8.82;4.47;;;;;;;;;;7392729;19;20014;-58
2022/05/22 13:01:30;;;;;;;8.13;4.15;;;;;;;;;;7391940;19;20052;-57
2022/05/22 13:04:00;;;;;;;9.43;4.68;;;;;;;;;;7391434;19;20029;-57
2022/05/22 13:06:33;;;;;;;7.55;4.13;;;;;;;;;;7395024;19;20015;-58
2022/05/22 13:09:06;;;;;;;7.05;4.30;;;;;;;;;;7390728;19;20499;-64
2022/05/22 13:11:41;;;;;;;5.90;3.70;;;;;;;;;;7391526;19;20014;-59
2022/05/22 13:14:14;;;;;;;8.18;4.53;;;;;;;;;;7391384;19;20014;-59
2022/05/22 13:16:47;;;;;;;9.18;4.30;;;;;;;;;;7390636;19;20026;-51
2022/05/22 13:19:15;;;;;;;;;;;;;;;;;;7390763;19;20018;-60
2022/05/22 13:21:44;;;;;;;9.05;4.72;;;;;;;;;;7394266;19;19918;-58
2022/05/22 13:24:26;;;;;;;10.95;5.03;;;;;;;;;;7390949;19;20018;-57
2022/05/22 13:26:59;;;;;;;8.50;4.95;;;;;;;;;;7391862;19;20531;-56
2022/05/22 13:29:27;;;;;;;;;;;;;;;;;;7400456;19;20022;-54
2022/05/22 13:31:58;;;;;;;10.63;4.35;;;;;;;;;;7400944;19;19922;-57
2022/05/22 13:34:32;;;;;;;9.70;4.63;;;;;;;;;;7399849;19;20019;-57
2022/05/22 13:37:02;;;;;;;8.68;3.92;;;;;;;;;;7399023;19;20022;-59
2022/05/22 13:39:48;;;;;;;7.28;4.00;;;;;;;;;;7400171;19;20102;-60
2022/05/22 13:42:48;;;;;;;7.82;3.38;;;;;;;;;;7401571;19;20014;-63
2022/05/22 13:45:22;;;;;;;5.75;2.85;;;;;;;;;;7402164;19;20038;-58
2022/05/22 13:48:08;;;;;;;6.70;3.17;;;;;;;;;;7405231;19;20010;-61
2022/05/22 13:53:33;;;;;;;9.15;4.68;;;;;;;;;;7403579;19;20019;-58
2022/05/22 13:56:01;;;;;;;;;;;;;;;;;;7399487;19;20356;-52
2022/05/22 13:58:35;;;;;;;6.93;4.15;;;;;;;;;;7398559;19;20364;-53
2022/05/22 14:01:06;;;;;;;6.47;3.72;;;;;;;;;;7397842;19;20475;-53
2022/05/22 14:03:38;;;;;;;10.65;4.07;;;;;;;;;;7397095;19;20018;-60
2022/05/22 14:06:08;;;;;;;7.15;3.97;;;;;;;;;;7395152;19;20014;-57
2022/05/22 14:08:37;;;;;;;5.85;3.83;;;;;;;;;;7396783;19;20014;-56
2022/05/22 14:11:11;;;;;;;7.57;3.05;;;;;;;;;;7399571;19;20048;-53
2022/05/22 14:13:51;;;;;;;7.50;3.90;;;;;;;;;;7397429;19;20021;-56
2022/05/22 14:16:23;;;;;;;7.93;3.70;;;;;;;;;;7393938;19;20082;-55
2022/05/22 14:18:59;;;;;;;8.18;5.03;;;;;;;;;;7396808;19;20351;-56
2022/05/22 14:21:28;;;;;;;9.38;4.80;;;;;;;;;;7396720;19;20078;-59
2022/05/22 14:26:38;;;;;;;9.60;4.80;;;;;;;;;;7397394;19;20007;-60
2022/05/22 14:29:13;;;;;;;8.20;5.30;;;;;;;;;;7395880;19;20022;-60
2022/05/22 14:31:45;;;;;;;9.25;5.25;;;;;;;;;;7397066;19;20018;-56
2022/05/22 14:34:20;;;;;;;8.50;4.47;;;;;;;;;;7396758;19;20369;-56
2022/05/22 14:36:52;;;;;;;8.75;4.60;;;;;;;;;;7394747;19;20018;-53
2022/05/22 14:39:21;;;;;;;10.90;5.53;;;;;;;;;;7392593;19;20018;-52
2022/05/22 14:41:50;;;;;;;10.30;4.65;;;;;;;;;;7396553;19;20243;-59
2022/05/22 14:44:31;;;;;;;7.85;5.22;;;;;;;;;;7399931;19;20025;-59
2022/05/22 14:47:00;;;;;;;9.55;5.18;;;;;;;;;;7394267;19;20034;-55
2022/05/22 14:49:30;;;;;;;8.02;4.85;;;;;;;;;;7395408;19;20019;-54
2022/05/22 14:52:00;;;;;;;7.55;4.97;;;;;;;;;;7395769;19;20443;-59
2022/05/22 14:54:29;;;;;;;7.72;5.18;;;;;;;;;;7394261;19;20014;-59
2022/05/22 14:57:03;;;;;;;6.93;4.95;;;;;;;;;;7394042;19;20024;-57
2022/05/22 14:59:38;;;;;;;9.30;4.95;;;;;;;;;;7396959;19;20010;-59
2022/05/22 15:02:10;;;;;;;10.55;4.72;;;;;;;;;;7395577;19;20534;-62
2022/05/22 15:04:39;;;;;;;;;;;;;;;;;;7396352;19;20019;-56
2022/05/22 15:07:09;;;;;;;10.60;5.47;;;;;;;;;;7395623;19;19918;-58
2022/05/22 15:09:39;;;;;;;7.82;4.75;;;;;;;;;;7395342;19;20126;-56
2022/05/22 15:12:09;;;;;;;8.98;4.53;;;;;;;;;;7395161;19;20376;-59
2022/05/22 15:14:47;;;;;;;7.68;4.40;;;;;;;;;;7394505;19;20014;-61
2022/05/22 15:17:19;;;;;;;10.10;5.90;;;;;;;;;;7397287;19;20359;-56
2022/05/22 15:19:54;;;;;;;10.17;5.20;;;;;;;;;;7395265;19;20018;-56
2022/05/22 15:28:01;;;;;;;7.97;5.00;;;;;;;;;;7397866;19;20019;-57
2022/05/22 15:30:33;;;;;;;6.47;3.70;;;;;;;;;;7397730;19;20015;-60
2022/05/22 15:33:10;;;;;;;6.50;3.75;;;;;;;;;;7402566;19;20475;-56
2022/05/22 15:35:39;;;;;;;7.47;4.05;;;;;;;;;;7398034;19;20011;-55
2022/05/22 15:38:07;;;;;;;7.25;4.25;;;;;;;;;;7396253;19;20020;-55
2022/05/22 15:40:36;;;;;;;9.32;6.45;;;;;;;;;;7393699;19;20328;-56
2022/05/22 15:43:08;;;;;;;10.90;5.97;;;;;;;;;;7394562;19;20010;-59
2022/05/22 15:45:39;;;;;;;8.45;5.45;;;;;;;;;;7392775;19;20025;-58
2022/05/22 15:51:17;;;;;;;8.20;3.70;;;;;;;;;;7392715;19;20560;-60
2022/05/22 15:53:49;;;;;;;7.35;3.97;;;;;;;;;;7394643;19;20358;-62
2022/05/22 15:56:21;;;;;;;5.63;3.60;;;;;;;;;;7392913;19;20405;-56
2022/05/22 15:58:51;;;;;;;8.68;4.10;;;;;;;;;;7393540;19;20025;-61
2022/05/22 16:01:23;;;;;;;9.60;3.83;;;;;;;;;;7393180;19;20133;-56